National Weather Service United States Department of Commerce

 

Aviation Weather Center TAFs Radar Soundings/Model Data Soaring
NWS Wichita Home Page Hazardous Weather Outlook NWS Graphical Forecasts

 

Wichita (ICT)
Hutchinson (HUT)
Tactical Decision Aid
 
Tactical Decision Aid
 

 
000
FTUS43 KICT 160522
TAFICT
TAF
KICT 160522Z 1606/1706 04010KT P6SM SCT014 OVC035
TEMPO 1606/1610 OVC014
FM161000 06009KT P6SM OVC025
FM161500 10011KT P6SM OVC035
FM162000 12010KT 6SM -FZRASN OVC025
FM170100 08007KT 5SM -FZDZ BR OVC012=
 
000
FTUS43 KICT 160522
TAFHUT
TAF
KHUT 160522Z 1606/1706 05008KT P6SM SCT012 OVC030
TEMPO 1606/1610 OVC012
FM161000 07008KT P6SM OVC022
FM161500 11010KT P6SM OVC030
FM162000 13009KT 5SM -FZRASN OVC022
FM170100 07008KT 4SM -FZDZ BR OVC010=
Salina (SLN) Russell (RSL)
Tactical Decision Aid
Tactical Decision Aid

 
000
FTUS43 KICT 160522
TAFSLN
TAF
KSLN 160522Z 1606/1706 04008KT P6SM SCT020 OVC035
TEMPO 1606/1610 BKN020
FM161000 07006KT P6SM OVC022
FM161500 10008KT P6SM OVC030
FM161900 11009KT 4SM -SN OVC022
FM170000 06007KT 3SM -SN OVC012=

 
000
FTUS43 KICT 160522
TAFRSL
TAF
KRSL 160522Z 1606/1706 06008KT P6SM SCT010 OVC030
TEMPO 1606/1610 BKN010
FM161000 10009KT 5SM BR OVC012
FM161500 12010KT P6SM OVC020
FM170000 05009KT 6SM BR OVC010=
Chanute (CNU) Great Bend (GBD)
Tactical Decision Aid
Tactical Decision Aid

 
000
FTUS43 KICT 160522
TAFCNU
TAF
KCNU 160522Z 1606/1706 03009KT P6SM SCT012 OVC025
TEMPO 1606/1610 OVC012
FM161500 08007KT P6SM OVC035
FM162100 10007KT 6SM -FZRA OVC025
FM170200 07006KT 5SM -FZDZ BR OVC012=

 
000
FTUS43 KICT 160522
TAFGBD
TAF
KGBD 160522Z 1606/1706 06008KT P6SM SCT012 OVC030
TEMPO 1606/1610 BKN012
FM161000 11009KT 5SM BR OVC012
FM161500 13011KT P6SM OVC022
FM170000 07009KT 5SM BR OVC012
AMD LTD TO CLD VIS AND WIND=
 
NWS Wichita Aviation Forecast Discussion

 

 

IMPORTANT: This page is a tool to help pilots better visualize weather and weather-related hazards, and is not a substitute for a weather briefing obtained from a Flight Service Station (1-800-WXBRIEF). The information contained here does not meet the FAA requirements for a pre-flight weather brief. Therefore, it is important that pilots call and obtain a briefing from an FAA Flight Service Specialist.